Detalii statie ERDEI ROBERT [00001D0F]

Toti senzorii

Date Temperatura solului [C]Precipitatii [mm]Voltaj baterie [mV]Leaf Wetness [Min]HC Air temperature [C]HC Relative humidity [%]Punctul de roua [C]
medieminmaxsumaultimatimpmedieminmaxmediemediemin
2019-10-19 22:00:00 0 6688 13.74 13.16 14.7 0 0 0
2019-10-19 23:00:00 0 6678 12.53 11.76 13.29 0 0 0
2019-10-20 00:00:00 0 6688 11.1 10.69 11.56 0 0 0
2019-10-20 01:00:00 0 6678 10.94 10.62 11.28 0 0 0
2019-10-20 02:00:00 0 6678 10.92 10.27 11.47 0 0 0
2019-10-20 03:00:00 0 6660 10.01 9.52 10.47 0 0 0
2019-10-20 04:00:00 0 6660 9.31 9.06 9.75 0 0 0
2019-10-20 05:00:00 0 6668 9.62 9.47 9.79 0 0 0
2019-10-20 06:00:00 0 6660 9.43 9.19 9.63 0 0 0
2019-10-20 07:00:00 0 6650 9.26 9.13 9.37 0 0 0
2019-10-20 08:00:00 0 6660 9.09 8.83 9.48 0 0 0
2019-10-20 09:00:00 0 6922 9.83 8.7 11.21 0 0 0
2019-10-20 10:00:00 0 7158 12.93 11.39 14.41 0 0 0
2019-10-20 11:00:00 0 7158 16.8 14.83 19.05 0 0 0
2019-10-20 12:00:00 0 7158 21.34 19.06 23.55 0 0 0
2019-10-20 13:00:00 0 7158 24.63 23.66 25.32 0 0 0
2019-10-20 14:00:00 0 7148 25.95 25.34 26.78 0 0 0
2019-10-20 15:00:00 0 7080 26.23 25.63 26.68 0 0 0
2019-10-20 16:00:00 0 7158 26.29 25.68 26.62 0 0 0
2019-10-20 17:00:00 0 7118 25.88 25.53 26.31 0 0 0
2019-10-20 18:00:00 0 7108 24.01 22.17 25.27 0 0 0
2019-10-20 19:00:00 0 6718 19.15 16.67 21.6 0 0 0
2019-10-20 20:00:00 0 6708 15.84 14.44 16.6 0 0 0
2019-10-20 21:00:00 0 6698 12.87 12.15 13.99 0 0 0
2019-10-20 22:00:00 0 6688 13.33 13.11 13.73 0 0 0
2019-10-20 23:00:00 0 6678 13.36 13.05 13.7 0 0 0
2019-10-21 00:00:00 0 6688 12.31 10.93 13.37 0 0 0
2019-10-21 01:00:00 0 6668 11.04 10.61 11.63 0 0 0
2019-10-21 02:00:00 0 6678 11.54 11.2 11.89 0 0 0
2019-10-21 03:00:00 0 6668 11.01 10.42 11.55 0 0 0
2019-10-21 04:00:00 0 6660 10.62 10.32 10.96 0 0 0
2019-10-21 05:00:00 0 6660 10.24 9.78 10.59 0 0 0
2019-10-21 06:00:00 0 6660 9.17 8.54 9.91 0 0 0
2019-10-21 07:00:00 0 6660 8.34 8.16 8.64 0 0 0
2019-10-21 08:00:00 0 6660 8.92 8.16 9.56 0 0 0
2019-10-21 09:00:00 0 6914 9.86 8.86 10.96 0 0 0
2019-10-21 10:00:00 0 7158 12.99 11.24 15.17 0 0 0
2019-10-21 11:00:00 0 7158 18.17 15.71 19.98 0 0 0
2019-10-21 12:00:00 0 7158 22.61 20.05 24.54 0 0 0
2019-10-21 13:00:00 0 7148 25.33 24.66 25.9 0 0 0
2019-10-21 14:00:00 0 7148 25.93 25.44 26.54 0 0 0
2019-10-21 15:00:00 0 7108 26.72 25.96 27.55 0 0 0
2019-10-21 16:00:00 0 7138 26.85 26.18 27.09 0 0 0
2019-10-21 17:00:00 0 7108 26.59 26.25 26.79 0 0 0
2019-10-21 18:00:00 0 6826 24.87 23.41 26.08 0 0 0
2019-10-21 19:00:00 0 6718 20.5 17.95 23.1 0 0 0